Time;durP1;ratioP1;P1;durP2;ratioP2;P2;SDS_P1;SDS_P2;PMS_P1;PMS_P2;Temp;Humidity;BMP_temperature;BMP_pressure;BME280_temperature;BME280_humidity;BME280_pressure;Samples;Min_cycle;Max_cycle;Signal;HPM_P1;HPM_P2
2020/12/13 00:01:41;;;;;;;18.13;4.75;;;5.10;99.90;;;;;;5055798;28;20033;-60
2020/12/13 00:04:07;;;;;;;17.60;4.50;;;5.20;99.90;;;;;;5072070;28;20118;-61
2020/12/13 00:06:34;;;;;;;16.15;3.65;;;5.10;99.90;;;;;;5070152;28;20078;-57
2020/12/13 00:09:00;;;;;;;15.43;2.92;;;5.20;99.90;;;;;;5068713;28;20029;-59
2020/12/13 00:11:26;;;;;;;14.85;3.10;;;5.20;99.90;;;;;;5062100;28;20491;-60
2020/12/13 00:13:52;;;;;;;12.38;2.83;;;5.20;99.90;;;;;;5066042;28;20024;-61
2020/12/13 00:16:18;;;;;;;15.52;3.10;;;5.30;99.90;;;;;;5073935;28;20040;-60
2020/12/13 00:18:44;;;;;;;19.38;5.80;;;5.20;99.90;;;;;;5073270;28;20058;-60
2020/12/13 00:21:14;;;;;;;14.15;5.07;;;5.10;99.90;;;;;;5073971;28;20097;-61
2020/12/13 00:23:40;;;;;;;10.02;2.88;;;5.10;99.90;;;;;;5071673;28;20033;-61
2020/12/13 00:26:10;;;;;;;14.60;4.10;;;5.10;99.90;;;;;;5073327;28;20489;-59
2020/12/13 00:28:37;;;;;;;11.48;3.13;;;5.10;99.90;;;;;;5054319;28;20029;-61
2020/12/13 00:31:05;;;;;;;18.48;3.17;;;5.00;99.90;;;;;;5093932;28;20085;-62
2020/12/13 00:33:31;;;;;;;9.88;2.72;;;5.00;99.90;;;;;;5071981;28;20093;-59
2020/12/13 00:35:58;;;;;;;15.77;3.17;;;4.90;99.90;;;;;;5090040;28;20066;-60
2020/12/13 00:38:23;;;;;;;12.57;3.20;;;4.80;99.90;;;;;;5073585;28;20036;-60
2020/12/13 00:40:51;;;;;;;15.10;5.43;;;4.70;99.90;;;;;;5076614;28;20028;-58
2020/12/13 00:43:18;;;;;;;10.73;2.88;;;4.70;99.90;;;;;;5088979;28;20032;-59
2020/12/13 00:45:44;;;;;;;16.98;5.18;;;4.70;99.90;;;;;;5071658;28;20047;-59
2020/12/13 00:48:10;;;;;;;17.20;3.53;;;4.60;99.90;;;;;;5055222;28;20032;-60
2020/12/13 00:50:39;;;;;;;16.30;3.53;;;4.60;99.90;;;;;;5071040;28;20386;-57
2020/12/13 00:53:06;;;;;;;11.77;2.53;;;4.60;99.90;;;;;;5071144;28;20453;-60
2020/12/13 00:55:32;;;;;;;13.68;2.88;;;4.60;99.90;;;;;;5066782;28;20059;-58
2020/12/13 00:57:58;;;;;;;14.35;2.85;;;4.60;99.90;;;;;;5064685;28;20120;-58
2020/12/13 01:00:24;;;;;;;15.52;3.15;;;4.60;99.90;;;;;;5064407;28;20111;-59
2020/12/13 01:02:52;;;;;;;12.05;3.03;;;4.60;99.90;;;;;;5051988;28;20455;-58
2020/12/13 01:05:18;;;;;;;13.68;3.22;;;4.60;99.90;;;;;;5053012;28;20044;-59
2020/12/13 01:07:44;;;;;;;15.43;3.15;;;4.50;99.90;;;;;;5064282;28;20035;-58
2020/12/13 01:10:10;;;;;;;9.02;2.55;;;4.50;99.90;;;;;;5088595;28;20048;-59
2020/12/13 01:12:36;;;;;;;11.23;2.80;;;4.60;99.90;;;;;;5072144;28;20048;-60
2020/12/13 01:15:05;;;;;;;18.30;3.90;;;4.60;99.90;;;;;;5063551;28;20174;-60
2020/12/13 01:17:31;;;;;;;16.13;3.50;;;4.50;99.90;;;;;;5062115;28;20052;-59
2020/12/13 01:19:57;;;;;;;20.50;3.80;;;4.50;99.90;;;;;;5088866;28;20067;-59
2020/12/13 01:22:23;;;;;;;14.05;3.15;;;4.50;99.90;;;;;;5060298;28;20028;-59
2020/12/13 01:24:49;;;;;;;16.63;3.50;;;4.40;99.90;;;;;;5072121;28;20086;-58
2020/12/13 01:27:15;;;;;;;10.55;3.15;;;4.40;99.90;;;;;;5074140;28;20111;-59
2020/12/13 01:29:40;;;;;;;11.57;3.45;;;4.40;99.90;;;;;;5079851;28;20124;-58
2020/12/13 01:32:06;;;;;;;13.63;3.28;;;4.40;99.90;;;;;;5071018;28;20065;-58
2020/12/13 01:34:32;;;;;;;14.57;3.55;;;4.40;99.90;;;;;;5071046;28;20043;-58
2020/12/13 01:36:59;;;;;;;16.25;3.92;;;4.30;99.90;;;;;;5080833;28;20073;-60
2020/12/13 01:39:25;;;;;;;14.95;5.88;;;4.30;99.90;;;;;;5060239;28;20041;-58
2020/12/13 01:41:56;;;;;;;15.80;5.05;;;4.20;99.90;;;;;;5066634;28;20537;-60
2020/12/13 01:44:36;;;;;;;25.13;7.78;;;4.20;99.90;;;;;;5071953;28;20060;-59
2020/12/13 01:47:04;;;;;;;15.52;4.97;;;4.20;99.90;;;;;;5063251;28;20060;-59
2020/12/13 01:49:34;;;;;;;12.18;4.45;;;4.20;99.90;;;;;;5063212;28;20033;-60
2020/12/13 01:55:06;;;;;;;16.23;4.75;;;4.20;99.90;;;;;;5050867;28;20037;-58
2020/12/13 01:57:36;;;;;;;15.65;4.57;;;4.20;99.90;;;;;;5058545;28;20025;-59
2020/12/13 02:00:08;;;;;;;13.95;4.50;;;4.20;99.90;;;;;;5051815;28;20540;-58
2020/12/13 02:02:39;;;;;;;13.60;3.83;;;4.10;99.90;;;;;;5062342;28;20036;-59
2020/12/13 02:05:05;;;;;;;17.13;4.55;;;4.10;99.90;;;;;;5070882;28;20035;-58
2020/12/13 02:07:31;;;;;;;10.50;3.80;;;4.00;99.90;;;;;;5072383;28;20040;-59
2020/12/13 02:09:58;;;;;;;15.10;4.35;;;4.00;99.90;;;;;;5073178;28;20024;-59
2020/12/13 02:12:24;;;;;;;13.43;4.32;;;4.00;99.90;;;;;;5079410;28;20441;-58
2020/12/13 02:14:50;;;;;;;16.70;3.60;;;3.90;99.90;;;;;;5072007;28;20029;-58
2020/12/13 02:17:18;;;;;;;10.57;3.58;;;3.90;99.90;;;;;;5076969;28;20024;-58
2020/12/13 02:19:43;;;;;;;14.15;4.35;;;3.80;99.90;;;;;;5085606;28;20528;-59
2020/12/13 02:22:11;;;;;;;8.68;3.13;;;3.80;99.90;;;;;;5087377;28;20036;-59
2020/12/13 02:24:37;;;;;;;12.85;4.10;;;3.80;99.90;;;;;;5054368;28;20115;-60
2020/12/13 02:27:07;;;;;;;13.18;3.40;;;3.70;99.90;;;;;;5089800;28;20125;-60
2020/12/13 02:29:33;;;;;;;12.23;3.72;;;3.70;99.90;;;;;;5061241;28;20078;-59
2020/12/13 02:31:59;;;;;;;14.52;3.55;;;3.70;99.90;;;;;;5076500;28;20040;-59
2020/12/13 02:34:24;;;;;;;12.05;3.00;;;3.60;99.90;;;;;;5091360;28;20470;-60
2020/12/13 02:36:50;;;;;;;9.73;3.22;;;3.60;99.90;;;;;;5070062;28;20044;-59
2020/12/13 02:39:16;;;;;;;11.32;2.97;;;3.60;99.90;;;;;;5073614;28;20134;-59
2020/12/13 02:41:41;;;;;;;9.32;2.83;;;3.50;99.90;;;;;;5057995;28;20033;-60
2020/12/13 02:44:07;;;;;;;8.52;3.10;;;3.40;99.90;;;;;;5069500;28;20605;-60
2020/12/13 02:46:33;;;;;;;9.75;3.03;;;3.40;99.90;;;;;;5087662;28;20111;-60
2020/12/13 02:48:58;;;;;;;15.45;3.80;;;3.40;99.90;;;;;;5079469;28;20022;-58
2020/12/13 02:51:24;;;;;;;9.27;3.20;;;3.40;99.90;;;;;;5079041;28;20529;-58
2020/12/13 02:53:50;;;;;;;10.50;2.97;;;3.30;99.90;;;;;;5080018;28;20397;-59
2020/12/13 02:56:16;;;;;;;9.77;2.90;;;3.20;99.90;;;;;;5076568;28;20466;-60
2020/12/13 02:58:41;;;;;;;7.60;2.75;;;3.10;99.90;;;;;;5064750;28;20029;-60
2020/12/13 03:01:10;;;;;;;10.77;3.20;;;3.10;99.90;;;;;;5075135;28;20036;-58
2020/12/13 03:03:36;;;;;;;9.38;3.50;;;3.00;99.90;;;;;;5073260;28;20093;-59
2020/12/13 03:06:02;;;;;;;8.90;3.10;;;3.00;99.90;;;;;;5077961;28;20047;-60
2020/12/13 03:08:27;;;;;;;9.68;2.70;;;3.00;99.90;;;;;;5076922;28;20509;-58
2020/12/13 03:10:53;;;;;;;9.00;2.75;;;3.00;99.90;;;;;;5086104;28;20032;-58
2020/12/13 03:13:19;;;;;;;10.30;2.95;;;2.90;99.90;;;;;;5059514;28;20033;-60
2020/12/13 03:15:44;;;;;;;12.93;2.50;;;2.90;99.90;;;;;;5087543;28;20531;-60
2020/12/13 03:18:10;;;;;;;6.75;2.97;;;2.80;99.90;;;;;;5092735;28;20385;-58
2020/12/13 03:20:36;;;;;;;6.47;3.25;;;2.80;99.90;;;;;;5085121;28;20025;-58
2020/12/13 03:23:01;;;;;;;13.40;3.58;;;2.80;99.90;;;;;;5092047;28;20125;-60
2020/12/13 03:25:27;;;;;;;8.60;3.00;;;2.80;99.90;;;;;;5092308;28;20457;-60
2020/12/13 03:27:52;;;;;;;8.95;3.53;;;2.80;99.90;;;;;;5057183;28;20043;-59
2020/12/13 03:30:18;;;;;;;12.55;3.55;;;2.80;99.90;;;;;;5079488;28;20020;-58
2020/12/13 03:32:44;;;;;;;6.25;2.92;;;2.90;99.90;;;;;;5068501;28;20031;-58
2020/12/13 03:35:09;;;;;;;13.30;3.58;;;2.80;99.90;;;;;;5076856;28;20025;-60
2020/12/13 03:37:35;;;;;;;13.55;3.25;;;2.80;99.90;;;;;;5082449;28;20095;-60
2020/12/13 03:40:01;;;;;;;9.55;3.67;;;2.80;99.90;;;;;;5087918;28;20024;-59
2020/12/13 03:42:27;;;;;;;10.50;3.50;;;2.80;99.90;;;;;;5073388;28;20554;-60
2020/12/13 03:44:52;;;;;;;9.85;4.18;;;2.80;99.90;;;;;;5071246;28;20053;-60
2020/12/13 03:47:18;;;;;;;12.02;3.60;;;2.70;99.90;;;;;;5067261;28;20029;-59
2020/12/13 03:49:43;;;;;;;13.98;4.57;;;2.70;99.90;;;;;;5076158;28;20107;-59
2020/12/13 03:52:09;;;;;;;8.40;3.20;;;2.70;99.90;;;;;;5079847;28;20036;-59
2020/12/13 03:54:35;;;;;;;9.90;3.50;;;2.70;99.90;;;;;;5072488;28;20025;-58
2020/12/13 03:57:00;;;;;;;9.40;3.50;;;2.70;99.90;;;;;;5073375;28;20036;-62
2020/12/13 03:59:26;;;;;;;6.70;3.13;;;2.70;99.90;;;;;;5074823;28;20036;-59
2020/12/13 04:01:52;;;;;;;11.48;3.95;;;2.70;99.90;;;;;;5083348;28;20150;-58
2020/12/13 04:04:17;;;;;;;10.05;3.22;;;2.70;99.90;;;;;;5073853;28;20066;-58
2020/12/13 04:06:43;;;;;;;10.30;3.95;;;2.60;99.90;;;;;;5088652;28;20032;-59
2020/12/13 04:09:09;;;;;;;12.05;3.67;;;2.60;99.90;;;;;;5092407;28;20486;-59
2020/12/13 04:11:34;;;;;;;10.02;3.53;;;2.60;99.90;;;;;;5072925;28;20056;-60
2020/12/13 04:14:00;;;;;;;18.23;4.03;;;2.50;99.90;;;;;;5067397;28;20035;-59
2020/12/13 04:16:30;;;;;;;10.25;3.80;;;2.50;99.90;;;;;;5057337;28;20037;-59
2020/12/13 04:18:55;;;;;;;10.13;3.85;;;2.50;99.90;;;;;;5071263;28;20128;-58
2020/12/13 04:21:21;;;;;;;10.05;3.70;;;2.50;99.90;;;;;;5070547;28;20103;-60
2020/12/13 04:23:46;;;;;;;10.52;3.28;;;2.50;99.90;;;;;;5070619;28;20036;-60
2020/12/13 04:26:12;;;;;;;10.10;3.60;;;2.50;99.90;;;;;;5072806;28;20089;-59
2020/12/13 04:28:38;;;;;;;12.68;3.53;;;2.50;99.90;;;;;;5073148;28;20060;-58
2020/12/13 04:31:03;;;;;;;11.32;3.85;;;2.50;99.90;;;;;;5078660;28;20024;-59
2020/12/13 04:33:29;;;;;;;15.05;4.25;;;2.50;99.90;;;;;;5058952;28;20032;-59
2020/12/13 04:35:55;;;;;;;11.00;4.40;;;2.50;99.90;;;;;;5090111;28;20495;-58
2020/12/13 04:38:20;;;;;;;10.35;3.72;;;2.60;99.90;;;;;;5071225;28;20035;-60
2020/12/13 04:40:46;;;;;;;11.57;3.58;;;2.60;99.90;;;;;;5052589;28;20112;-59
2020/12/13 04:43:12;;;;;;;9.80;3.58;;;2.60;99.90;;;;;;5053542;28;20041;-58
2020/12/13 04:45:38;;;;;;;11.40;3.33;;;2.60;99.90;;;;;;5072262;28;20470;-60
2020/12/13 04:48:08;;;;;;;16.13;4.47;;;2.50;99.90;;;;;;5072596;28;20028;-61
2020/12/13 04:50:38;;;;;;;11.73;4.30;;;2.60;99.90;;;;;;5092218;28;20047;-61
2020/12/13 04:53:09;;;;;;;12.27;4.95;;;2.60;99.90;;;;;;5070105;28;20028;-59
2020/12/13 04:55:58;;;;;;;14.38;4.72;;;2.70;99.90;;;;;;5058197;28;20025;-58
2020/12/13 04:58:26;;;;;;;10.73;4.90;;;2.70;99.90;;;;;;5089914;28;20355;-57
2020/12/13 05:00:57;;;;;;;13.10;4.90;;;2.80;99.90;;;;;;5053054;28;20478;-58
2020/12/13 05:03:24;;;;;;;12.10;4.43;;;2.80;99.90;;;;;;5070305;28;20062;-59
2020/12/13 05:05:51;;;;;;;9.68;4.18;;;2.90;99.90;;;;;;5072008;28;20040;-61
2020/12/13 05:08:17;;;;;;;13.55;4.78;;;2.90;99.90;;;;;;5077388;28;20021;-59
2020/12/13 05:10:43;;;;;;;16.83;5.60;;;3.00;99.90;;;;;;5071435;28;20506;-59
2020/12/13 05:13:09;;;;;;;13.57;5.63;;;3.10;99.90;;;;;;5063471;28;20037;-57
2020/12/13 05:15:36;;;;;;;21.15;6.65;;;3.20;99.90;;;;;;5051962;28;20025;-60
2020/12/13 05:18:04;;;;;;;20.90;6.78;;;3.20;99.90;;;;;;5083641;28;20039;-58
2020/12/13 05:20:30;;;;;;;17.98;6.63;;;3.30;99.90;;;;;;5074116;28;20043;-60
2020/12/13 05:22:57;;;;;;;18.00;5.63;;;3.40;99.90;;;;;;5072192;28;20036;-59
2020/12/13 05:25:34;;;;;;;15.88;5.75;;;3.40;99.90;;;;;;5056968;28;20037;-60
2020/12/13 05:28:05;;;;;;;14.88;5.63;;;3.30;99.90;;;;;;5091709;28;20024;-59
2020/12/13 05:30:37;;;;;;;17.33;6.13;;;3.30;99.90;;;;;;5063782;28;20043;-61
2020/12/13 05:33:12;;;;;;;18.90;5.30;;;3.30;99.90;;;;;;5086423;28;20047;-59
2020/12/13 05:35:38;;;;;;;;;;;3.20;99.90;;;;;;5051851;28;20032;-59
2020/12/13 05:38:12;;;;;;;16.90;6.40;;;3.30;99.90;;;;;;5091305;28;20391;-60
2020/12/13 05:40:38;;;;;;;16.55;6.47;;;3.30;99.90;;;;;;5074602;28;20032;-61
2020/12/13 05:43:08;;;;;;;20.10;5.97;;;3.50;99.90;;;;;;5091209;28;20024;-59
2020/12/13 05:53:28;;;;;;;19.55;6.70;;;3.60;99.90;;;;;;5092297;28;20060;-60
2020/12/13 05:55:56;;;;;;;24.17;6.97;;;3.60;99.90;;;;;;5072919;28;20028;-62
2020/12/13 05:58:26;;;;;;;21.17;6.43;;;3.60;99.90;;;;;;5086579;28;20103;-62
2020/12/13 06:00:56;;;;;;;23.17;6.60;;;3.60;99.90;;;;;;5068740;28;20078;-57
2020/12/13 06:03:36;;;;;;;16.17;5.97;;;3.60;99.90;;;;;;5084243;28;20047;-58
2020/12/13 06:06:07;;;;;;;18.45;5.78;;;3.70;99.90;;;;;;5067945;28;20427;-58
2020/12/13 06:08:55;;;;;;;20.25;5.75;;;3.70;99.90;;;;;;5051821;28;20056;-58
2020/12/13 06:11:21;;;;;;;22.85;5.95;;;3.70;99.90;;;;;;5060112;28;20047;-60
2020/12/13 06:13:53;;;;;;;20.38;6.20;;;3.70;99.90;;;;;;5090735;28;20040;-58
2020/12/13 06:16:20;;;;;;;19.13;6.53;;;3.70;99.90;;;;;;5086407;28;20024;-59
2020/12/13 06:18:46;;;;;;;20.98;6.35;;;3.70;99.90;;;;;;5051907;28;20037;-58
2020/12/13 06:21:14;;;;;;;16.50;5.80;;;3.70;99.90;;;;;;5068047;28;20099;-59
2020/12/13 06:23:44;;;;;;;16.85;6.38;;;3.70;99.90;;;;;;5070894;28;20444;-58
2020/12/13 06:26:10;;;;;;;21.30;6.53;;;3.70;99.90;;;;;;5066645;28;20029;-59
2020/12/13 06:28:36;;;;;;;21.00;6.45;;;3.70;99.90;;;;;;5051646;28;20037;-59
2020/12/13 06:31:03;;;;;;;18.27;6.13;;;3.80;99.90;;;;;;5051092;28;20029;-58
2020/12/13 06:33:41;;;;;;;21.45;6.47;;;3.70;99.90;;;;;;5051371;28;20029;-61
2020/12/13 06:36:07;;;;;;;16.02;6.25;;;3.70;99.90;;;;;;5052791;28;20036;-57
2020/12/13 06:38:34;;;;;;;25.45;7.07;;;3.70;99.90;;;;;;5070639;28;20036;-59
2020/12/13 06:41:13;;;;;;;20.33;6.55;;;3.70;99.90;;;;;;5069933;28;20398;-57
2020/12/13 06:43:54;;;;;;;17.15;6.53;;;3.80;99.90;;;;;;5089730;28;20465;-60
2020/12/13 06:46:25;;;;;;;20.25;6.18;;;3.90;99.90;;;;;;5084031;28;20033;-60
2020/12/13 06:48:50;;;;;;;19.95;6.20;;;3.80;99.90;;;;;;5051109;28;20160;-57
2020/12/13 06:51:34;;;;;;;16.88;5.95;;;3.90;99.90;;;;;;5064540;28;20116;-62
2020/12/13 06:54:04;;;;;;;21.95;6.20;;;3.90;99.90;;;;;;5051110;28;20025;-61
2020/12/13 06:56:30;;;;;;;15.77;5.85;;;3.90;99.90;;;;;;5055371;28;20036;-59
2020/12/13 06:58:59;;;;;;;23.35;5.60;;;3.90;99.90;;;;;;5070488;28;20537;-59
2020/12/13 07:01:37;;;;;;;15.10;5.50;;;4.00;99.90;;;;;;5062258;28;20426;-58
2020/12/13 07:04:23;;;;;;;20.75;5.75;;;4.00;99.90;;;;;;5088145;28;20040;-59
2020/12/13 07:06:57;;;;;;;16.73;5.75;;;4.00;99.90;;;;;;5065489;28;20028;-59
2020/12/13 07:09:24;;;;;;;21.48;5.93;;;4.10;99.90;;;;;;5086801;28;20025;-59
2020/12/13 07:11:51;;;;;;;16.80;5.45;;;4.20;99.90;;;;;;5070162;28;20049;-61
2020/12/13 07:14:18;;;;;;;20.38;6.05;;;4.20;99.90;;;;;;5057526;28;20036;-60
2020/12/13 07:16:47;;;;;;;16.05;5.20;;;4.20;99.90;;;;;;5084286;28;20048;-58
2020/12/13 07:19:15;;;;;;;20.00;5.65;;;4.20;99.90;;;;;;5072836;28;20105;-61
2020/12/13 07:21:42;;;;;;;17.92;5.07;;;4.20;99.90;;;;;;5076780;28;20828;-58
2020/12/13 07:24:08;;;;;;;13.13;4.65;;;4.30;99.90;;;;;;5092229;28;20047;-60
2020/12/13 07:26:38;;;;;;;22.17;5.30;;;4.30;99.90;;;;;;5083635;28;20107;-59
2020/12/13 07:29:07;;;;;;;17.17;4.55;;;4.40;99.90;;;;;;5080940;28;20040;-59
2020/12/13 07:31:36;;;;;;;22.40;5.25;;;4.40;99.90;;;;;;5055032;28;20032;-59
2020/12/13 07:34:06;;;;;;;15.70;5.13;;;4.50;99.90;;;;;;5057783;28;20033;-60
2020/12/13 07:36:35;;;;;;;17.35;5.18;;;4.50;99.90;;;;;;5061885;28;20022;-59
2020/12/13 07:39:07;;;;;;;19.65;5.03;;;4.50;99.90;;;;;;5094469;28;20031;-58
2020/12/13 07:41:33;;;;;;;18.85;5.03;;;4.50;99.90;;;;;;5092564;28;20031;-57
2020/12/13 07:43:58;;;;;;;18.40;4.82;;;4.50;99.90;;;;;;5094805;28;20504;-60
2020/12/13 07:46:25;;;;;;;18.45;5.38;;;4.50;99.90;;;;;;5065041;28;20028;-58
2020/12/13 07:49:07;;;;;;;15.18;5.38;;;4.60;99.90;;;;;;5074306;28;20068;-59
2020/12/13 07:51:35;;;;;;;16.38;5.70;;;4.60;99.90;;;;;;5088319;28;20067;-58
2020/12/13 07:54:11;;;;;;;18.70;5.20;;;4.60;99.90;;;;;;5092141;28;20604;-57
2020/12/13 07:56:37;;;;;;;18.77;6.05;;;4.60;99.90;;;;;;5072977;28;20028;-58
2020/12/13 07:59:14;;;;;;;17.13;5.78;;;4.60;99.90;;;;;;5073661;28;20375;-59
2020/12/13 08:01:41;;;;;;;16.13;5.97;;;4.60;99.90;;;;;;5072120;28;20024;-58
2020/12/13 08:04:07;;;;;;;18.92;6.50;;;4.60;99.90;;;;;;5056767;28;20029;-59
2020/12/13 08:06:34;;;;;;;14.82;5.32;;;4.70;99.90;;;;;;5071998;28;20031;-59
2020/12/13 08:09:00;;;;;;;16.48;4.07;;;4.70;99.90;;;;;;5073915;28;20025;-60
2020/12/13 08:11:26;;;;;;;13.80;4.15;;;4.80;99.90;;;;;;5072264;28;20049;-59
2020/12/13 08:13:55;;;;;;;14.30;3.95;;;4.80;99.90;;;;;;5073557;28;20024;-59
2020/12/13 08:16:25;;;;;;;14.95;4.03;;;4.90;99.90;;;;;;5068394;28;20041;-58
2020/12/13 08:18:53;;;;;;;12.40;3.90;;;5.00;99.90;;;;;;5072024;28;20486;-58
2020/12/13 08:21:29;;;;;;;16.08;3.50;;;5.00;99.90;;;;;;5058396;28;20036;-58
2020/12/13 08:23:57;;;;;;;14.30;3.70;;;4.90;99.90;;;;;;5093272;28;20036;-58
2020/12/13 08:26:23;;;;;;;17.05;3.72;;;5.00;99.90;;;;;;5075235;28;20078;-57
2020/12/13 08:28:51;;;;;;;17.10;4.30;;;4.90;99.90;;;;;;5073443;28;20036;-59
2020/12/13 08:31:22;;;;;;;16.95;3.90;;;4.90;99.90;;;;;;5073741;28;20043;-59
2020/12/13 08:33:47;;;;;;;13.80;4.10;;;5.00;99.90;;;;;;5088601;28;20032;-58
2020/12/13 08:36:20;;;;;;;12.88;3.88;;;5.00;99.90;;;;;;5077762;28;20035;-58
2020/12/13 08:38:58;;;;;;;15.77;4.30;;;4.90;99.90;;;;;;5080533;28;20413;-59
2020/12/13 08:41:24;;;;;;;15.52;4.63;;;5.00;99.90;;;;;;5068576;28;20024;-60
2020/12/13 08:43:50;;;;;;;13.95;3.83;;;5.00;99.90;;;;;;5072449;28;20043;-59
2020/12/13 08:46:41;;;;;;;14.23;3.65;;;5.10;99.90;;;;;;5072982;28;20441;-58
2020/12/13 08:49:06;;;;;;;12.13;3.90;;;5.10;99.90;;;;;;5058462;28;20033;-58
2020/12/13 08:51:32;;;;;;;16.58;4.13;;;5.10;99.90;;;;;;5078015;28;20107;-58
2020/12/13 08:54:03;;;;;;;15.30;4.55;;;5.10;99.90;;;;;;5061971;28;20047;-58
2020/12/13 08:56:38;;;;;;;15.90;4.55;;;5.10;99.90;;;;;;5052933;28;20138;-58
2020/12/13 08:59:08;;;;;;;13.50;4.25;;;5.10;99.90;;;;;;5064894;28;20021;-60
2020/12/13 09:01:37;;;;;;;14.38;4.03;;;5.20;99.90;;;;;;5069436;28;20379;-59
2020/12/13 09:04:20;;;;;;;13.35;5.10;;;5.20;99.90;;;;;;5066589;28;20080;-60
2020/12/13 09:07:01;;;;;;;12.32;3.72;;;5.20;99.90;;;;;;5063565;28;20379;-61
2020/12/13 09:09:32;;;;;;;12.13;3.72;;;5.20;99.90;;;;;;5056403;28;20108;-58
2020/12/13 09:11:59;;;;;;;14.13;3.78;;;5.30;99.90;;;;;;5071878;28;20054;-58
2020/12/13 09:14:31;;;;;;;11.65;4.15;;;5.30;99.90;;;;;;5093130;28;20466;-59
2020/12/13 09:16:57;;;;;;;13.40;4.40;;;5.30;99.90;;;;;;5072150;28;20111;-59
2020/12/13 09:19:23;;;;;;;17.33;4.28;;;5.30;99.90;;;;;;5058289;28;20390;-59
2020/12/13 09:21:56;;;;;;;18.23;4.43;;;5.30;99.90;;;;;;5063838;28;20029;-59
2020/12/13 09:24:23;;;;;;;18.90;4.70;;;5.40;99.90;;;;;;5053904;28;20028;-59
2020/12/13 09:27:05;;;;;;;16.73;3.97;;;5.40;99.90;;;;;;5067639;28;20025;-58
2020/12/13 09:29:33;;;;;;;16.80;4.63;;;5.40;99.90;;;;;;5063131;28;20041;-59
2020/12/13 09:31:59;;;;;;;13.07;4.47;;;5.40;99.90;;;;;;5051905;28;20501;-58
2020/12/13 09:34:24;;;;;;;19.02;4.90;;;5.50;99.90;;;;;;5078142;28;20024;-59
2020/12/13 09:36:51;;;;;;;17.73;4.60;;;5.50;99.90;;;;;;5069559;28;20032;-58
2020/12/13 09:39:17;;;;;;;15.27;4.25;;;5.50;99.90;;;;;;5069505;28;20036;-61
2020/12/13 09:41:43;;;;;;;25.17;4.43;;;5.60;99.90;;;;;;5070554;28;20020;-62
2020/12/13 09:44:09;;;;;;;24.48;4.95;;;5.50;99.90;;;;;;5075946;28;20393;-61
2020/12/13 09:46:34;;;;;;;13.18;4.45;;;5.50;99.90;;;;;;5069247;28;20379;-62
2020/12/13 09:49:00;;;;;;;19.73;4.97;;;5.50;99.90;;;;;;5060463;28;20036;-59
2020/12/13 09:51:26;;;;;;;21.38;4.90;;;5.50;99.90;;;;;;5079458;28;20032;-61
2020/12/13 09:53:52;;;;;;;17.83;4.25;;;5.50;99.90;;;;;;5081057;28;20508;-60
2020/12/13 09:56:18;;;;;;;19.25;5.38;;;5.50;99.90;;;;;;5070960;28;20056;-59
2020/12/13 09:58:45;;;;;;;22.95;5.82;;;5.50;99.90;;;;;;5075137;28;20025;-59
2020/12/13 10:01:12;;;;;;;17.00;4.03;;;5.60;99.90;;;;;;5067205;28;20021;-58
2020/12/13 10:03:49;;;;;;;20.33;4.45;;;5.70;99.90;;;;;;5058370;28;20382;-59
2020/12/13 10:09:10;;;;;;;19.20;4.00;;;5.70;99.90;;;;;;5056449;28;20107;-58
2020/12/13 10:11:39;;;;;;;22.80;4.68;;;5.80;99.90;;;;;;5055225;28;20037;-58
2020/12/13 10:14:06;;;;;;;21.70;4.35;;;5.80;99.90;;;;;;5069928;28;20371;-59
2020/12/13 10:16:33;;;;;;;20.98;4.65;;;5.90;99.90;;;;;;5062882;28;20028;-58
2020/12/13 10:18:59;;;;;;;22.45;4.45;;;5.90;99.90;;;;;;5057638;28;20047;-59
2020/12/13 10:21:29;;;;;;;13.65;3.92;;;5.90;99.90;;;;;;5070733;28;20478;-58
2020/12/13 10:23:55;;;;;;;15.68;4.47;;;6.00;99.90;;;;;;5069046;28;20025;-59
2020/12/13 10:26:25;;;;;;;20.67;4.18;;;6.00;99.90;;;;;;5056136;28;20028;-58
2020/12/13 10:28:52;;;;;;;26.73;4.47;;;6.00;99.90;;;;;;5059049;28;20032;-62
2020/12/13 10:31:19;;;;;;;22.60;4.60;;;6.10;99.90;;;;;;5076447;28;20024;-58
2020/12/13 10:33:45;;;;;;;24.05;4.03;;;6.20;99.90;;;;;;5066009;28;20051;-58
2020/12/13 10:36:13;;;;;;;26.33;5.07;;;6.20;99.90;;;;;;5060738;28;20074;-60
2020/12/13 10:38:39;;;;;;;27.48;4.38;;;6.20;99.90;;;;;;5060532;28;20162;-59
2020/12/13 10:41:07;;;;;;;23.65;4.03;;;6.30;99.90;;;;;;5056510;28;20033;-59
2020/12/13 10:43:36;;;;;;;27.83;4.00;;;6.40;99.90;;;;;;5062224;28;20471;-57
2020/12/13 10:46:03;;;;;;;23.27;3.58;;;6.40;99.90;;;;;;5058130;28;20029;-61
2020/12/13 10:48:29;;;;;;;15.85;3.85;;;6.50;99.90;;;;;;5058285;28;20032;-58
2020/12/13 10:50:54;;;;;;;18.80;3.75;;;6.60;99.90;;;;;;5072843;28;20413;-58
2020/12/13 10:53:20;;;;;;;25.13;4.47;;;6.60;99.90;;;;;;5060954;28;20031;-58
2020/12/13 10:55:46;;;;;;;16.58;3.60;;;6.60;99.90;;;;;;5074391;28;20029;-58
2020/12/13 10:58:11;;;;;;;17.67;3.92;;;6.70;99.90;;;;;;5056470;28;20103;-59
2020/12/13 11:00:37;;;;;;;17.17;4.00;;;6.80;99.90;;;;;;5074033;28;20398;-58
2020/12/13 11:03:03;;;;;;;21.45;4.72;;;6.90;99.90;;;;;;5084346;28;20040;-59
2020/12/13 11:05:29;;;;;;;15.90;4.03;;;6.90;99.90;;;;;;5068908;28;20032;-59
2020/12/13 11:07:54;;;;;;;13.13;3.55;;;7.00;99.90;;;;;;5070514;28;20031;-59
2020/12/13 11:10:20;;;;;;;25.48;5.65;;;7.00;99.90;;;;;;5057264;28;20429;-59
2020/12/13 11:12:46;;;;;;;25.33;4.22;;;7.00;99.90;;;;;;5064523;28;20393;-59
2020/12/13 11:15:11;;;;;;;25.13;4.20;;;7.00;99.90;;;;;;5073568;28;20398;-59
2020/12/13 11:17:37;;;;;;;21.85;5.22;;;7.00;99.90;;;;;;5072298;28;20032;-58
2020/12/13 11:20:04;;;;;;;22.55;4.82;;;7.00;99.90;;;;;;5068752;28;20032;-60
2020/12/13 11:22:29;;;;;;;15.68;4.10;;;7.10;99.90;;;;;;5067185;28;20033;-58
2020/12/13 11:24:55;;;;;;;21.23;4.57;;;7.10;99.90;;;;;;5064476;28;20386;-59
2020/12/13 11:27:20;;;;;;;20.70;5.28;;;7.10;99.90;;;;;;5062767;28;20037;-62
2020/12/13 11:29:46;;;;;;;23.13;4.45;;;7.20;99.90;;;;;;5056146;28;20017;-58
2020/12/13 11:32:12;;;;;;;20.90;4.72;;;7.20;99.90;;;;;;5059724;28;20392;-60
2020/12/13 11:34:37;;;;;;;20.10;3.50;;;7.20;99.90;;;;;;5069967;28;20029;-59
2020/12/13 11:37:06;;;;;;;23.42;3.50;;;7.30;99.90;;;;;;5065207;28;20025;-59
2020/12/13 11:39:33;;;;;;;22.90;4.00;;;7.30;99.90;;;;;;5064267;28;20028;-59
2020/12/13 11:42:00;;;;;;;19.02;3.05;;;7.30;99.90;;;;;;5057517;28;20116;-59
2020/12/13 11:44:26;;;;;;;27.27;4.50;;;7.30;99.90;;;;;;5062958;28;20051;-60
2020/12/13 11:46:52;;;;;;;18.02;3.92;;;7.30;99.90;;;;;;5054971;28;20528;-58
2020/12/13 11:49:18;;;;;;;28.50;4.30;;;7.40;99.90;;;;;;5064966;28;20029;-57
2020/12/13 11:51:44;;;;;;;20.60;3.13;;;7.40;99.90;;;;;;5065016;28;20402;-59
2020/12/13 11:54:11;;;;;;;20.00;4.10;;;7.40;99.90;;;;;;5057262;28;20037;-58
2020/12/13 11:56:36;;;;;;;21.15;3.40;;;7.40;99.90;;;;;;5067592;28;20041;-59
2020/12/13 11:59:02;;;;;;;15.35;3.20;;;7.50;99.90;;;;;;5067427;28;20025;-61
2020/12/13 12:01:28;;;;;;;22.23;3.20;;;7.50;99.90;;;;;;5071504;28;20036;-61
2020/12/13 12:03:54;;;;;;;20.92;2.88;;;7.50;99.90;;;;;;5075384;28;20040;-58
2020/12/13 12:06:20;;;;;;;17.85;3.50;;;7.60;99.90;;;;;;5062950;28;20024;-59
2020/12/13 12:08:46;;;;;;;16.33;3.22;;;7.60;99.90;;;;;;5072188;28;20037;-59
2020/12/13 12:11:18;;;;;;;14.00;2.88;;;7.50;99.90;;;;;;5072795;28;20044;-59
2020/12/13 12:13:45;;;;;;;16.58;2.78;;;7.50;99.90;;;;;;5087998;28;20561;-58
2020/12/13 12:16:10;;;;;;;10.55;2.28;;;7.50;99.90;;;;;;5083741;28;20103;-60
2020/12/13 12:18:36;;;;;;;14.75;2.30;;;7.50;99.90;;;;;;5080192;28;20257;-60
2020/12/13 12:21:07;;;;;;;13.57;3.10;;;7.50;99.90;;;;;;5090203;28;20500;-59
2020/12/13 12:23:33;;;;;;;17.92;2.83;;;7.50;99.90;;;;;;5075110;28;20490;-59
2020/12/13 12:25:58;;;;;;;24.23;3.22;;;7.60;99.90;;;;;;5089923;28;20148;-59
2020/12/13 12:28:24;;;;;;;16.98;3.67;;;7.60;99.90;;;;;;5090500;28;20501;-58
2020/12/13 12:30:50;;;;;;;22.40;3.22;;;7.60;99.90;;;;;;5072317;28;20040;-59
2020/12/13 12:33:15;;;;;;;11.27;2.45;;;7.60;99.90;;;;;;5079174;28;20081;-59
2020/12/13 12:35:44;;;;;;;15.93;2.75;;;7.70;99.90;;;;;;5066225;28;20035;-58
2020/12/13 12:38:10;;;;;;;18.13;2.97;;;7.70;99.90;;;;;;5069475;28;20028;-58
2020/12/13 12:40:36;;;;;;;17.80;3.35;;;7.70;99.90;;;;;;5057494;28;20037;-59
2020/12/13 12:43:02;;;;;;;15.77;3.30;;;7.80;99.90;;;;;;5061096;28;20036;-58
2020/12/13 12:45:27;;;;;;;16.27;3.10;;;7.80;99.90;;;;;;5084961;28;20036;-59
2020/12/13 12:47:53;;;;;;;9.70;2.70;;;7.80;99.90;;;;;;5071427;28;20083;-58
2020/12/13 12:50:18;;;;;;;17.30;3.08;;;7.90;99.90;;;;;;5088634;28;20081;-58
2020/12/13 12:52:44;;;;;;;11.63;2.85;;;7.90;99.90;;;;;;5068062;28;20069;-59
2020/12/13 12:55:10;;;;;;;11.73;2.65;;;7.90;99.90;;;;;;5087390;28;20109;-59
2020/12/13 12:57:36;;;;;;;12.07;3.03;;;7.90;99.90;;;;;;5086609;28;20172;-57
2020/12/13 13:02:31;;;;;;;16.05;2.80;;;7.90;99.90;;;;;;5087285;28;20033;-59
2020/12/13 13:05:01;;;;;;;11.73;2.85;;;8.00;99.90;;;;;;5068477;28;20036;-58
2020/12/13 13:07:31;;;;;;;15.40;3.10;;;8.00;99.90;;;;;;5079136;28;20039;-58